Time;durP1;ratioP1;P1;durP2;ratioP2;P2;SDS_P1;SDS_P2;PMS_P1;PMS_P2;Temp;Humidity;BMP_temperature;BMP_pressure;BME280_temperature;BME280_humidity;BME280_pressure;Samples;Min_cycle;Max_cycle;Signal;HPM_P1;HPM_P2
2023/09/11 00:02:16;;;;;;;7.03;5.70;;;;;;;;;;5036254;28;20766;-70
2023/09/11 00:04:41;;;;;;;4.80;4.50;;;;;;;;;;5035976;28;20447;-70
2023/09/11 00:07:07;;;;;;;9.87;6.47;;;;;;;;;;5035946;28;20427;-70
2023/09/11 00:09:33;;;;;;;6.30;5.80;;;;;;;;;;5035392;28;20423;-69
2023/09/11 00:11:59;;;;;;;10.40;5.50;;;;;;;;;;5036343;28;20455;-70
2023/09/11 00:14:25;;;;;;;9.73;5.80;;;;;;;;;;5036024;28;20470;-70
2023/09/11 00:16:51;;;;;;;6.37;5.93;;;;;;;;;;5035650;28;20192;-70
2023/09/11 00:19:17;;;;;;;9.13;6.00;;;;;;;;;;5035705;28;20454;-71
2023/09/11 00:21:43;;;;;;;7.53;6.77;;;;;;;;;;5035948;28;20895;-70
2023/09/11 00:24:09;;;;;;;9.30;5.37;;;;;;;;;;5035898;28;20526;-70
2023/09/11 00:26:35;;;;;;;6.87;6.20;;;;;;;;;;5036077;28;20188;-71
2023/09/11 00:29:01;;;;;;;6.60;6.00;;;;;;;;;;5035742;28;20418;-70
2023/09/11 00:31:27;;;;;;;14.77;6.13;;;;;;;;;;5035733;28;20473;-69
2023/09/11 00:33:53;;;;;;;6.73;6.23;;;;;;;;;;5035296;28;20554;-71
2023/09/11 00:36:19;;;;;;;6.50;6.10;;;;;;;;;;5035761;28;20423;-70
2023/09/11 00:38:47;;;;;;;13.47;6.17;;;;;;;;;;5035241;28;20466;-70
2023/09/11 00:41:13;;;;;;;7.23;6.33;;;;;;;;;;5035461;28;20415;-70
2023/09/11 00:43:39;;;;;;;7.83;6.77;;;;;;;;;;5035557;28;20472;-70
2023/09/11 00:46:06;;;;;;;6.20;5.90;;;;;;;;;;5035521;28;20498;-70
2023/09/11 00:48:32;;;;;;;6.17;5.77;;;;;;;;;;5035231;28;20429;-70
2023/09/11 00:50:58;;;;;;;5.77;5.27;;;;;;;;;;5035660;28;20414;-70
2023/09/11 00:53:26;;;;;;;5.97;5.67;;;;;;;;;;5035305;28;20522;-70
2023/09/11 00:55:52;;;;;;;8.87;5.37;;;;;;;;;;5034910;28;20471;-70
2023/09/11 00:58:18;;;;;;;5.63;5.33;;;;;;;;;;5035082;28;20415;-71
2023/09/11 01:00:47;;;;;;;5.90;5.50;;;;;;;;;;5035177;28;20427;-71
2023/09/11 01:03:14;;;;;;;9.13;6.13;;;;;;;;;;5035010;28;20415;-70
2023/09/11 01:05:40;;;;;;;6.37;5.87;;;;;;;;;;5035083;28;20423;-70
2023/09/11 01:08:06;;;;;;;5.73;5.37;;;;;;;;;;5034904;28;20411;-70
2023/09/11 01:10:33;;;;;;;6.67;6.17;;;;;;;;;;5034943;28;20518;-70
2023/09/11 01:12:59;;;;;;;5.23;4.83;;;;;;;;;;5034877;28;20420;-70
2023/09/11 01:15:28;;;;;;;5.87;5.43;;;;;;;;;;5034552;28;20885;-70
2023/09/11 01:18:06;;;;;;;9.47;6.07;;;;;;;;;;5034839;28;20411;-70
2023/09/11 01:20:35;;;;;;;6.50;6.03;;;;;;;;;;5034858;28;20427;-70
2023/09/11 01:23:20;;;;;;;9.93;6.13;;;;;;;;;;5033470;28;20773;-70
2023/09/11 01:25:49;;;;;;;6.03;5.60;;;;;;;;;;5034486;28;20422;-71
2023/09/11 01:28:34;;;;;;;13.60;5.90;;;;;;;;;;5034446;28;20470;-70
2023/09/11 01:31:00;;;;;;;6.20;5.37;;;;;;;;;;5034566;28;20466;-70
2023/09/11 01:33:26;;;;;;;8.93;5.47;;;;;;;;;;5034266;28;20475;-70
2023/09/11 01:35:52;;;;;;;6.80;6.17;;;;;;;;;;5033008;28;20437;-70
2023/09/11 01:38:19;;;;;;;9.20;7.43;;;;;;;;;;5034881;28;20876;-70
2023/09/11 01:40:45;;;;;;;6.23;5.93;;;;;;;;;;5034268;28;20181;-70
2023/09/11 01:43:12;;;;;;;6.63;6.23;;;;;;;;;;5034095;28;20418;-71
2023/09/11 01:45:40;;;;;;;6.73;6.23;;;;;;;;;;5034269;28;20431;-71
2023/09/11 01:48:07;;;;;;;6.57;6.20;;;;;;;;;;5034002;28;20817;-70
2023/09/11 01:50:33;;;;;;;6.30;5.77;;;;;;;;;;5033944;28;20923;-70
2023/09/11 01:52:59;;;;;;;6.63;5.60;;;;;;;;;;5032653;28;20420;-70
2023/09/11 01:55:25;;;;;;;8.10;5.40;;;;;;;;;;5033632;28;20493;-71
2023/09/11 01:57:51;;;;;;;6.77;5.03;;;;;;;;;;5033848;28;20443;-70
2023/09/11 02:00:17;;;;;;;13.43;5.30;;;;;;;;;;5034047;28;20505;-70
2023/09/11 02:02:43;;;;;;;8.30;5.57;;;;;;;;;;5033832;28;20230;-70
2023/09/11 02:05:09;;;;;;;14.27;6.00;;;;;;;;;;5033979;28;20416;-70
2023/09/11 02:07:35;;;;;;;6.57;6.17;;;;;;;;;;5033763;28;20415;-71
2023/09/11 02:10:02;;;;;;;6.87;6.10;;;;;;;;;;5033669;28;20786;-71
2023/09/11 02:12:28;;;;;;;13.53;5.87;;;;;;;;;;5033620;28;20411;-71
2023/09/11 02:14:54;;;;;;;6.50;6.00;;;;;;;;;;5033716;28;20475;-70
2023/09/11 02:17:19;;;;;;;6.20;5.70;;;;;;;;;;5033716;28;20450;-71
2023/09/11 02:19:45;;;;;;;7.50;6.87;;;;;;;;;;5033772;28;20448;-70
2023/09/11 02:22:11;;;;;;;6.60;6.20;;;;;;;;;;5033544;28;20411;-70
2023/09/11 02:24:37;;;;;;;8.60;5.63;;;;;;;;;;5033748;28;20430;-70
2023/09/11 02:27:03;;;;;;;5.67;5.40;;;;;;;;;;5033340;28;20442;-71
2023/09/11 02:29:29;;;;;;;10.67;5.60;;;;;;;;;;5033301;28;20434;-71
2023/09/11 02:31:55;;;;;;;5.77;5.30;;;;;;;;;;5033638;28;20416;-71
2023/09/11 02:34:21;;;;;;;7.13;6.53;;;;;;;;;;5032905;28;20585;-71
2023/09/11 02:36:47;;;;;;;6.97;6.03;;;;;;;;;;5033600;28;20412;-71
2023/09/11 02:39:13;;;;;;;5.43;5.13;;;;;;;;;;5033768;28;20924;-71
2023/09/11 02:41:39;;;;;;;6.37;5.80;;;;;;;;;;5033454;28;20465;-71
2023/09/11 02:44:05;;;;;;;5.20;5.00;;;;;;;;;;5033367;28;20427;-70
2023/09/11 02:46:31;;;;;;;6.70;6.10;;;;;;;;;;5033440;28;20426;-71
2023/09/11 02:48:57;;;;;;;7.27;5.17;;;;;;;;;;5033132;28;20487;-71
2023/09/11 02:51:25;;;;;;;8.43;5.30;;;;;;;;;;5033263;28;20419;-71
2023/09/11 02:53:51;;;;;;;5.63;5.17;;;;;;;;;;5033129;28;20467;-71
2023/09/11 02:56:18;;;;;;;6.10;5.60;;;;;;;;;;5033287;28;20535;-70
2023/09/11 02:58:44;;;;;;;6.17;5.77;;;;;;;;;;5033131;28;20447;-71
2023/09/11 03:01:10;;;;;;;5.50;5.00;;;;;;;;;;5032963;28;20442;-70
2023/09/11 03:03:36;;;;;;;6.13;5.73;;;;;;;;;;5033203;28;20426;-71
2023/09/11 03:06:02;;;;;;;6.47;5.30;;;;;;;;;;5033328;28;20805;-70
2023/09/11 03:08:29;;;;;;;5.50;5.10;;;;;;;;;;5032940;28;20640;-70
2023/09/11 03:10:55;;;;;;;6.17;5.57;;;;;;;;;;5032918;28;20443;-70
2023/09/11 03:13:21;;;;;;;6.23;5.83;;;;;;;;;;5033109;28;20426;-70
2023/09/11 03:15:47;;;;;;;11.20;6.17;;;;;;;;;;5032738;28;20424;-71
2023/09/11 03:18:13;;;;;;;5.17;4.77;;;;;;;;;;5032786;28;20423;-70
2023/09/11 03:20:39;;;;;;;7.07;5.50;;;;;;;;;;5032865;28;20412;-70
2023/09/11 03:23:05;;;;;;;6.10;5.80;;;;;;;;;;5032846;28;20786;-70
2023/09/11 03:25:34;;;;;;;16.33;7.13;;;;;;;;;;5032767;28;20423;-70
2023/09/11 03:28:00;;;;;;;6.40;5.90;;;;;;;;;;5032800;28;20238;-70
2023/09/11 03:30:26;;;;;;;5.37;5.07;;;;;;;;;;5032884;28;20507;-69
2023/09/11 03:32:52;;;;;;;14.10;5.80;;;;;;;;;;5033035;28;20459;-70
2023/09/11 03:35:18;;;;;;;7.63;5.57;;;;;;;;;;5033103;28;20479;-70
2023/09/11 03:37:44;;;;;;;5.43;5.20;;;;;;;;;;5032666;28;20426;-69
2023/09/11 03:40:14;;;;;;;6.70;5.83;;;;;;;;;;5032953;28;20180;-70
2023/09/11 03:42:40;;;;;;;5.87;5.43;;;;;;;;;;5032816;28;20411;-71
2023/09/11 03:45:10;;;;;;;7.23;5.60;;;;;;;;;;5033029;28;20427;-70
2023/09/11 03:47:36;;;;;;;6.70;6.20;;;;;;;;;;5036905;28;20817;-71
2023/09/11 03:50:04;;;;;;;6.20;5.77;;;;;;;;;;5036531;28;20415;-71
2023/09/11 03:52:30;;;;;;;7.50;5.90;;;;;;;;;;5036604;28;20411;-71
2023/09/11 03:54:56;;;;;;;6.90;6.30;;;;;;;;;;5036175;28;21010;-71
2023/09/11 03:57:22;;;;;;;8.10;6.70;;;;;;;;;;5036347;28;20757;-71
2023/09/11 03:59:48;;;;;;;7.80;5.87;;;;;;;;;;5036067;28;20794;-71
2023/09/11 04:02:14;;;;;;;6.80;6.40;;;;;;;;;;5035963;28;20412;-70
2023/09/11 04:04:40;;;;;;;9.50;6.00;;;;;;;;;;5035887;28;20423;-71
2023/09/11 04:07:06;;;;;;;7.10;6.60;;;;;;;;;;5035667;28;20747;-70
2023/09/11 04:09:32;;;;;;;6.03;5.67;;;;;;;;;;5035943;28;20505;-71
2023/09/11 04:11:58;;;;;;;8.37;5.50;;;;;;;;;;5035914;28;20407;-69
2023/09/11 04:14:24;;;;;;;7.27;6.70;;;;;;;;;;5035594;28;20474;-69
2023/09/11 04:16:50;;;;;;;7.80;5.03;;;;;;;;;;5035946;28;20782;-69
2023/09/11 04:19:16;;;;;;;12.13;6.20;;;;;;;;;;5035825;28;20541;-70
2023/09/11 04:21:42;;;;;;;6.03;5.53;;;;;;;;;;5035658;28;20422;-69
2023/09/11 04:24:12;;;;;;;6.40;6.00;;;;;;;;;;5035769;28;20419;-69
2023/09/11 04:26:39;;;;;;;7.10;5.47;;;;;;;;;;5035836;28;20184;-70
2023/09/11 04:29:05;;;;;;;6.17;5.83;;;;;;;;;;5035500;28;20422;-69
2023/09/11 04:31:31;;;;;;;5.43;5.10;;;;;;;;;;5035065;28;20404;-71
2023/09/11 04:33:57;;;;;;;6.77;5.47;;;;;;;;;;5035092;28;20477;-71
2023/09/11 04:36:23;;;;;;;6.20;5.47;;;;;;;;;;5035288;28;20509;-70
2023/09/11 04:38:49;;;;;;;7.80;5.33;;;;;;;;;;5035109;28;20176;-70
2023/09/11 04:41:16;;;;;;;6.20;5.70;;;;;;;;;;5035076;28;20423;-69
2023/09/11 04:43:42;;;;;;;5.17;4.77;;;;;;;;;;5035184;28;20447;-70
2023/09/11 04:46:08;;;;;;;6.33;6.00;;;;;;;;;;5035316;28;20761;-70
2023/09/11 04:48:34;;;;;;;9.90;7.30;;;;;;;;;;5035585;28;20447;-69
2023/09/11 04:51:00;;;;;;;7.23;6.50;;;;;;;;;;5034899;28;20447;-70
2023/09/11 04:53:26;;;;;;;6.17;5.93;;;;;;;;;;5035227;28;20430;-70
2023/09/11 04:55:56;;;;;;;5.00;4.80;;;;;;;;;;5034483;28;20509;-69
2023/09/11 04:58:22;;;;;;;5.50;5.17;;;;;;;;;;5035053;28;20435;-70
2023/09/11 05:00:48;;;;;;;10.53;6.20;;;;;;;;;;5034933;28;20895;-70
2023/09/11 05:03:14;;;;;;;13.70;5.93;;;;;;;;;;5035015;28;20419;-70
2023/09/11 05:05:41;;;;;;;8.17;5.90;;;;;;;;;;5035074;28;20481;-69
2023/09/11 05:08:07;;;;;;;6.63;6.03;;;;;;;;;;5035949;28;20522;-69
2023/09/11 05:10:33;;;;;;;11.10;6.43;;;;;;;;;;5033456;28;20513;-70
2023/09/11 05:12:59;;;;;;;7.07;6.30;;;;;;;;;;5035423;28;20485;-69
2023/09/11 05:15:25;;;;;;;6.23;5.67;;;;;;;;;;5034478;28;20501;-69
2023/09/11 05:17:51;;;;;;;5.97;5.47;;;;;;;;;;5034609;28;20425;-69
2023/09/11 05:20:17;;;;;;;7.33;6.73;;;;;;;;;;5034538;28;20427;-69
2023/09/11 05:22:43;;;;;;;6.40;5.90;;;;;;;;;;5034517;28;20469;-70
2023/09/11 05:25:09;;;;;;;5.93;5.53;;;;;;;;;;5035220;28;20490;-70
2023/09/11 05:27:35;;;;;;;8.83;5.70;;;;;;;;;;5034332;28;20423;-70
2023/09/11 05:30:01;;;;;;;7.03;6.60;;;;;;;;;;5034676;28;20411;-70
2023/09/11 05:32:27;;;;;;;5.73;5.33;;;;;;;;;;5034343;28;20415;-69
2023/09/11 05:34:53;;;;;;;8.23;5.90;;;;;;;;;;5034664;28;20574;-69
2023/09/11 05:37:19;;;;;;;9.53;5.07;;;;;;;;;;5034544;28;20185;-71
2023/09/11 05:39:46;;;;;;;10.90;4.73;;;;;;;;;;5034366;28;20534;-71
2023/09/11 05:42:12;;;;;;;5.47;4.97;;;;;;;;;;5034680;28;20918;-70
2023/09/11 05:44:38;;;;;;;6.37;5.70;;;;;;;;;;5034052;28;20506;-69
2023/09/11 05:47:06;;;;;;;7.73;5.53;;;;;;;;;;5034063;28;20477;-69
2023/09/11 05:49:32;;;;;;;6.97;6.37;;;;;;;;;;5033867;28;20418;-70
2023/09/11 05:51:58;;;;;;;7.43;6.23;;;;;;;;;;5034037;28;20794;-70
2023/09/11 05:54:24;;;;;;;7.43;6.90;;;;;;;;;;5033917;28;20483;-70
2023/09/11 05:56:50;;;;;;;6.40;5.90;;;;;;;;;;5033991;28;20514;-70
2023/09/11 05:59:18;;;;;;;12.57;6.47;;;;;;;;;;5034414;28;20887;-68
2023/09/11 06:01:45;;;;;;;7.27;6.53;;;;;;;;;;5032642;28;20598;-69
2023/09/11 06:04:11;;;;;;;7.23;6.57;;;;;;;;;;5033982;28;20419;-70
2023/09/11 06:06:37;;;;;;;6.53;5.90;;;;;;;;;;5034028;28;20501;-70
2023/09/11 06:09:07;;;;;;;13.70;7.00;;;;;;;;;;5033625;28;20423;-70
2023/09/11 06:11:33;;;;;;;7.23;6.63;;;;;;;;;;5033689;28;20454;-70
2023/09/11 06:13:59;;;;;;;10.63;9.53;;;;;;;;;;5033733;28;20473;-70
2023/09/11 06:16:25;;;;;;;7.17;6.67;;;;;;;;;;5033517;28;20525;-69
2023/09/11 06:18:51;;;;;;;12.00;6.80;;;;;;;;;;5033459;28;20426;-70
2023/09/11 06:21:18;;;;;;;8.70;7.77;;;;;;;;;;5033733;28;20424;-69
2023/09/11 06:23:44;;;;;;;8.13;6.97;;;;;;;;;;5033599;28;20458;-70
2023/09/11 06:26:10;;;;;;;9.30;5.80;;;;;;;;;;5033614;28;20426;-70
2023/09/11 06:28:36;;;;;;;9.00;8.10;;;;;;;;;;5033483;28;20419;-70
2023/09/11 06:31:02;;;;;;;10.90;9.40;;;;;;;;;;5033243;28;20419;-70
2023/09/11 06:33:28;;;;;;;15.33;7.80;;;;;;;;;;5032007;28;20808;-70
2023/09/11 06:35:54;;;;;;;10.70;7.77;;;;;;;;;;5033275;28;20431;-69
2023/09/11 06:38:21;;;;;;;8.97;7.80;;;;;;;;;;5033700;28;20419;-69
2023/09/11 06:40:47;;;;;;;12.17;7.93;;;;;;;;;;5033107;28;20911;-68
2023/09/11 06:43:14;;;;;;;12.20;7.33;;;;;;;;;;5033492;28;20411;-70
2023/09/11 06:45:41;;;;;;;11.60;7.33;;;;;;;;;;5033230;28;20420;-69
2023/09/11 06:48:07;;;;;;;15.87;7.70;;;;;;;;;;5033042;28;20458;-70
2023/09/11 06:50:34;;;;;;;19.53;7.30;;;;;;;;;;5033429;28;20423;-69
2023/09/11 06:53:00;;;;;;;9.77;7.63;;;;;;;;;;5033016;28;20434;-69
2023/09/11 06:55:26;;;;;;;12.70;7.77;;;;;;;;;;5032850;28;20587;-69
2023/09/11 06:57:56;;;;;;;16.33;8.00;;;;;;;;;;5033264;28;20177;-69
2023/09/11 07:00:23;;;;;;;9.50;7.43;;;;;;;;;;5033167;28;20252;-69
2023/09/11 07:02:50;;;;;;;13.23;7.00;;;;;;;;;;5033237;28;20441;-69
2023/09/11 07:05:20;;;;;;;8.43;7.67;;;;;;;;;;5032928;28;20427;-69
2023/09/11 07:07:46;;;;;;;9.27;6.87;;;;;;;;;;5032974;28;20896;-69
2023/09/11 07:10:17;;;;;;;10.43;6.90;;;;;;;;;;5033065;28;20766;-69
2023/09/11 07:12:44;;;;;;;11.90;6.27;;;;;;;;;;5033136;28;20719;-69
2023/09/11 07:15:10;;;;;;;15.30;7.93;;;;;;;;;;5032565;28;20964;-69
2023/09/11 07:17:36;;;;;;;8.17;7.37;;;;;;;;;;5032998;28;20420;-69
2023/09/11 07:20:09;;;;;;;15.77;6.60;;;;;;;;;;5033505;28;20445;-69
2023/09/11 07:22:35;;;;;;;14.07;7.00;;;;;;;;;;5037049;28;20423;-69
2023/09/11 07:25:02;;;;;;;19.23;6.20;;;;;;;;;;5036990;28;20415;-69
2023/09/11 07:27:33;;;;;;;18.20;7.53;;;;;;;;;;5036614;28;20498;-69
2023/09/11 07:30:03;;;;;;;22.73;7.00;;;;;;;;;;5036941;28;20486;-69
2023/09/11 07:32:30;;;;;;;12.07;7.07;;;;;;;;;;5036967;28;20399;-68
2023/09/11 07:34:56;;;;;;;9.23;6.77;;;;;;;;;;5036580;28;20467;-69
2023/09/11 07:37:22;;;;;;;16.20;7.33;;;;;;;;;;5036465;28;20473;-69
2023/09/11 07:39:49;;;;;;;28.63;7.90;;;;;;;;;;5036492;28;20423;-69
2023/09/11 07:42:15;;;;;;;10.93;6.60;;;;;;;;;;5036691;28;20438;-69
2023/09/11 07:44:41;;;;;;;18.67;7.00;;;;;;;;;;5036752;28;20903;-69
2023/09/11 07:47:07;;;;;;;15.30;5.70;;;;;;;;;;5036620;28;20832;-69
2023/09/11 07:49:33;;;;;;;7.93;6.27;;;;;;;;;;5036595;28;20874;-69
2023/09/11 07:51:58;;;;;;;14.67;6.43;;;;;;;;;;5036285;28;20411;-69
2023/09/11 07:54:24;;;;;;;7.50;5.80;;;;;;;;;;5036049;28;20522;-69
2023/09/11 07:56:52;;;;;;;10.67;6.90;;;;;;;;;;5035981;28;20181;-69
2023/09/11 07:59:18;;;;;;;8.97;6.30;;;;;;;;;;5036106;28;20426;-69
2023/09/11 08:01:44;;;;;;;7.23;6.63;;;;;;;;;;5036379;28;20419;-69
2023/09/11 08:04:10;;;;;;;10.63;7.50;;;;;;;;;;5036779;28;20419;-68
2023/09/11 08:06:36;;;;;;;10.30;6.70;;;;;;;;;;5036548;28;20415;-69
2023/09/11 08:09:03;;;;;;;11.83;5.60;;;;;;;;;;5036202;28;20458;-69
2023/09/11 08:11:29;;;;;;;7.30;6.80;;;;;;;;;;5035759;28;20423;-69
2023/09/11 08:13:55;;;;;;;16.33;6.80;;;;;;;;;;5035709;28;20524;-69
2023/09/11 08:16:21;;;;;;;10.23;6.53;;;;;;;;;;5035929;28;20876;-69
2023/09/11 08:18:47;;;;;;;14.83;6.37;;;;;;;;;;5035810;28;20423;-69
2023/09/11 08:21:13;;;;;;;11.37;6.60;;;;;;;;;;5035890;28;20439;-69
2023/09/11 08:23:42;;;;;;;5.77;5.47;;;;;;;;;;5034346;28;20460;-69
2023/09/11 08:26:08;;;;;;;6.23;5.63;;;;;;;;;;5035561;28;20450;-70
2023/09/11 08:28:34;;;;;;;6.60;5.23;;;;;;;;;;5035990;28;20899;-69
2023/09/11 08:31:00;;;;;;;10.63;6.13;;;;;;;;;;5034789;28;20561;-69
2023/09/11 08:33:26;;;;;;;11.60;5.10;;;;;;;;;;5036507;28;20508;-69
2023/09/11 08:35:52;;;;;;;5.97;5.23;;;;;;;;;;5035454;28;20442;-69
2023/09/11 08:38:19;;;;;;;5.50;5.07;;;;;;;;;;5035752;28;20911;-69
2023/09/11 08:40:45;;;;;;;5.97;4.87;;;;;;;;;;5035642;28;20431;-68
2023/09/11 08:43:11;;;;;;;13.53;5.03;;;;;;;;;;5035570;28;20415;-69
2023/09/11 08:45:38;;;;;;;8.60;5.60;;;;;;;;;;5035228;28;20427;-69
2023/09/11 08:48:15;;;;;;;15.63;4.97;;;;;;;;;;5035229;28;20427;-69
2023/09/11 08:50:48;;;;;;;6.43;5.37;;;;;;;;;;5035170;28;20407;-69
2023/09/11 08:53:17;;;;;;;12.53;6.43;;;;;;;;;;5035442;28;20423;-68
2023/09/11 08:55:43;;;;;;;5.90;5.40;;;;;;;;;;5034906;28;20533;-68
2023/09/11 08:58:11;;;;;;;11.77;5.50;;;;;;;;;;5035230;28;20415;-69
2023/09/11 09:00:38;;;;;;;5.73;5.33;;;;;;;;;;5034970;28;20478;-68
2023/09/11 09:03:04;;;;;;;4.17;3.97;;;;;;;;;;5035240;28;20412;-69
2023/09/11 09:05:33;;;;;;;5.67;5.13;;;;;;;;;;5034901;28;20921;-68
2023/09/11 09:08:00;;;;;;;8.07;5.20;;;;;;;;;;5035361;28;20499;-68
2023/09/11 09:10:26;;;;;;;7.23;4.90;;;;;;;;;;5034727;28;20446;-69
2023/09/11 09:12:53;;;;;;;10.57;5.33;;;;;;;;;;5034966;28;20420;-68
2023/09/11 09:15:20;;;;;;;6.47;5.30;;;;;;;;;;5034551;28;20503;-68
2023/09/11 09:17:46;;;;;;;10.23;5.90;;;;;;;;;;5034677;28;20423;-68
2023/09/11 09:20:13;;;;;;;5.73;5.27;;;;;;;;;;5034422;28;20922;-68
2023/09/11 09:22:56;;;;;;;6.83;5.27;;;;;;;;;;5035009;28;20420;-68
2023/09/11 09:25:22;;;;;;;11.17;5.77;;;;;;;;;;5034417;28;20945;-68
2023/09/11 09:27:48;;;;;;;5.67;5.27;;;;;;;;;;5034344;28;20775;-69
2023/09/11 09:30:20;;;;;;;14.07;6.53;;;;;;;;;;5034474;28;20469;-69
2023/09/11 09:32:47;;;;;;;9.20;6.10;;;;;;;;;;5034396;28;20453;-69
2023/09/11 09:35:13;;;;;;;6.17;5.77;;;;;;;;;;5034241;28;20475;-68
2023/09/11 09:37:39;;;;;;;5.43;5.03;;;;;;;;;;5034417;28;20415;-68
2023/09/11 09:40:06;;;;;;;5.30;4.97;;;;;;;;;;5034506;28;20499;-69
2023/09/11 09:42:41;;;;;;;5.30;5.10;;;;;;;;;;5033800;28;20426;-68
2023/09/11 09:45:08;;;;;;;6.23;5.80;;;;;;;;;;5034056;28;21078;-69
2023/09/11 09:47:34;;;;;;;5.77;5.27;;;;;;;;;;5034103;28;20927;-69
2023/09/11 09:50:01;;;;;;;5.23;4.70;;;;;;;;;;5034026;28;20416;-69
2023/09/11 09:52:28;;;;;;;7.90;5.03;;;;;;;;;;5034593;28;20419;-69
2023/09/11 09:54:54;;;;;;;5.83;4.80;;;;;;;;;;5033851;28;20490;-68
2023/09/11 09:57:22;;;;;;;10.77;5.40;;;;;;;;;;5034143;28;20415;-68
2023/09/11 09:59:49;;;;;;;9.77;5.33;;;;;;;;;;5034077;28;20423;-68
2023/09/11 10:02:21;;;;;;;5.53;4.60;;;;;;;;;;5033878;28;20419;-68
2023/09/11 10:04:50;;;;;;;6.60;4.43;;;;;;;;;;5032493;28;20435;-68
2023/09/11 10:07:16;;;;;;;6.40;5.80;;;;;;;;;;5033606;28;20903;-68
2023/09/11 10:09:42;;;;;;;7.17;5.50;;;;;;;;;;5033700;28;20434;-68
2023/09/11 10:12:11;;;;;;;15.30;5.43;;;;;;;;;;5034112;28;20419;-69
2023/09/11 10:14:37;;;;;;;5.63;5.33;;;;;;;;;;5033097;28;20820;-68
2023/09/11 10:17:04;;;;;;;7.47;5.33;;;;;;;;;;5034121;28;20481;-69
2023/09/11 10:19:30;;;;;;;5.57;5.07;;;;;;;;;;5033399;28;20432;-68
2023/09/11 10:21:56;;;;;;;6.47;5.73;;;;;;;;;;5033476;28;20415;-68
2023/09/11 10:24:22;;;;;;;4.90;4.60;;;;;;;;;;5032234;28;20915;-68
2023/09/11 10:26:48;;;;;;;5.83;5.30;;;;;;;;;;5033476;28;20510;-68
2023/09/11 10:29:26;;;;;;;9.17;5.30;;;;;;;;;;5033716;28;20461;-68
2023/09/11 10:31:57;;;;;;;12.23;5.10;;;;;;;;;;5033623;28;20270;-69
2023/09/11 10:34:24;;;;;;;6.70;5.17;;;;;;;;;;5033160;28;20562;-68
2023/09/11 10:36:53;;;;;;;9.83;4.93;;;;;;;;;;5033459;28;20415;-69
2023/09/11 10:39:19;;;;;;;10.27;5.90;;;;;;;;;;5033175;28;20451;-68
2023/09/11 10:41:45;;;;;;;12.10;5.07;;;;;;;;;;5033153;28;20501;-68
2023/09/11 10:44:11;;;;;;;5.87;4.67;;;;;;;;;;5033102;28;20419;-68
2023/09/11 10:46:39;;;;;;;4.93;4.73;;;;;;;;;;5033192;28;20422;-68
2023/09/11 10:49:18;;;;;;;8.43;5.30;;;;;;;;;;5033036;28;20423;-68
2023/09/11 10:51:48;;;;;;;5.47;5.07;;;;;;;;;;5033173;28;20461;-69
2023/09/11 10:54:16;;;;;;;12.40;4.90;;;;;;;;;;5031581;28;20496;-68
2023/09/11 10:56:42;;;;;;;8.10;4.60;;;;;;;;;;5033219;28;20527;-68
2023/09/11 10:59:08;;;;;;;9.07;5.40;;;;;;;;;;5033205;28;20407;-68
2023/09/11 11:01:34;;;;;;;9.30;5.53;;;;;;;;;;5033298;28;20416;-68
2023/09/11 11:04:07;;;;;;;5.47;4.90;;;;;;;;;;5032926;28;20406;-68
2023/09/11 11:06:33;;;;;;;4.87;4.77;;;;;;;;;;5033003;28;20792;-68
2023/09/11 11:08:59;;;;;;;4.27;3.97;;;;;;;;;;5032882;28;20415;-68
2023/09/11 11:11:28;;;;;;;4.80;4.50;;;;;;;;;;5033045;28;20428;-68
2023/09/11 11:14:22;;;;;;;5.53;5.03;;;;;;;;;;5033045;28;20475;-68
2023/09/11 11:17:06;;;;;;;4.67;4.47;;;;;;;;;;5033345;28;20411;-68
2023/09/11 11:19:33;;;;;;;5.37;4.53;;;;;;;;;;5032927;28;20443;-68
2023/09/11 11:22:03;;;;;;;7.93;4.93;;;;;;;;;;5032731;28;20870;-68
2023/09/11 11:24:36;;;;;;;4.87;4.60;;;;;;;;;;5032706;28;20411;-69
2023/09/11 11:27:03;;;;;;;5.20;4.80;;;;;;;;;;5032995;28;20445;-68
2023/09/11 11:29:29;;;;;;;3.83;3.60;;;;;;;;;;5032938;28;20442;-68
2023/09/11 11:31:58;;;;;;;5.50;5.00;;;;;;;;;;5032035;28;20469;-69
2023/09/11 11:34:25;;;;;;;9.60;5.50;;;;;;;;;;5032676;28;20470;-68
2023/09/11 11:36:54;;;;;;;6.03;5.10;;;;;;;;;;5032659;28;20510;-70
2023/09/11 11:39:21;;;;;;;5.97;5.50;;;;;;;;;;5032688;28;20427;-69
2023/09/11 11:41:48;;;;;;;7.33;4.70;;;;;;;;;;5033489;28;20505;-71
2023/09/11 11:44:14;;;;;;;11.23;5.23;;;;;;;;;;5032725;28;20935;-69
2023/09/11 11:46:40;;;;;;;8.53;5.20;;;;;;;;;;5032544;28;20419;-69
2023/09/11 11:49:06;;;;;;;4.87;4.47;;;;;;;;;;5032704;28;20434;-69
2023/09/11 11:51:32;;;;;;;8.63;4.90;;;;;;;;;;5031263;28;20431;-64
2023/09/11 11:53:59;;;;;;;5.40;4.90;;;;;;;;;;5032616;28;20474;-68
2023/09/11 11:56:26;;;;;;;4.40;4.13;;;;;;;;;;5031221;28;20435;-68
2023/09/11 11:58:55;;;;;;;5.70;5.20;;;;;;;;;;5032395;28;20449;-68
2023/09/11 12:01:21;;;;;;;6.70;4.87;;;;;;;;;;5032465;28;20427;-68
2023/09/11 12:03:48;;;;;;;4.43;4.27;;;;;;;;;;5032277;28;20419;-69
2023/09/11 12:06:15;;;;;;;5.57;4.57;;;;;;;;;;5031775;28;20431;-67
2023/09/11 12:08:41;;;;;;;4.73;4.43;;;;;;;;;;5036471;28;20497;-68
2023/09/11 12:11:08;;;;;;;7.27;4.77;;;;;;;;;;5035739;28;20749;-68
2023/09/11 12:13:34;;;;;;;3.70;3.53;;;;;;;;;;5036009;28;20419;-69
2023/09/11 12:16:00;;;;;;;4.00;3.80;;;;;;;;;;5035629;28;20892;-68
2023/09/11 12:18:28;;;;;;;5.10;4.03;;;;;;;;;;5035864;28;20412;-71
2023/09/11 12:21:04;;;;;;;7.83;4.67;;;;;;;;;;5035591;28;20887;-68
2023/09/11 12:23:30;;;;;;;4.70;4.40;;;;;;;;;;5035774;28;20426;-67
2023/09/11 12:25:56;;;;;;;5.43;3.73;;;;;;;;;;5035199;28;20423;-70
2023/09/11 12:28:23;;;;;;;4.00;3.80;;;;;;;;;;5035532;28;20791;-69
2023/09/11 12:30:50;;;;;;;5.47;3.33;;;;;;;;;;5035640;28;20419;-69
2023/09/11 12:33:21;;;;;;;4.00;3.80;;;;;;;;;;5035529;28;20467;-68
2023/09/11 12:35:47;;;;;;;4.63;3.77;;;;;;;;;;5035134;28;20835;-69
2023/09/11 12:38:13;;;;;;;13.70;4.10;;;;;;;;;;5035303;28;20883;-68
2023/09/11 12:40:45;;;;;;;7.93;4.50;;;;;;;;;;5035104;28;20926;-68
2023/09/11 12:43:11;;;;;;;7.73;4.53;;;;;;;;;;5035307;28;20845;-68
2023/09/11 12:45:37;;;;;;;7.20;4.00;;;;;;;;;;5035157;28;20420;-70
2023/09/11 12:48:04;;;;;;;3.50;3.40;;;;;;;;;;5035027;28;20430;-65
2023/09/11 12:50:30;;;;;;;3.83;3.63;;;;;;;;;;5035055;28;20427;-68
2023/09/11 12:52:59;;;;;;;7.83;4.07;;;;;;;;;;5035074;28;20561;-69
2023/09/11 12:55:26;;;;;;;3.40;3.10;;;;;;;;;;5034756;28;20994;-68
2023/09/11 12:57:52;;;;;;;10.53;3.70;;;;;;;;;;5035016;28;20446;-68
2023/09/11 13:00:18;;;;;;;3.20;3.10;;;;;;;;;;5034867;28;20431;-68
2023/09/11 13:02:44;;;;;;;3.73;3.43;;;;;;;;;;5035039;28;20935;-69
2023/09/11 13:05:10;;;;;;;4.37;3.80;;;;;;;;;;5035029;28;20465;-68
2023/09/11 13:07:36;;;;;;;4.07;3.67;;;;;;;;;;5035233;28;20184;-68
2023/09/11 13:10:03;;;;;;;10.53;3.40;;;;;;;;;;5034877;28;20469;-68
2023/09/11 13:12:29;;;;;;;3.00;2.80;;;;;;;;;;5034863;28;20782;-68
2023/09/11 13:14:55;;;;;;;7.83;3.60;;;;;;;;;;5034929;28;20478;-68
2023/09/11 13:17:22;;;;;;;6.43;3.37;;;;;;;;;;5034651;28;20411;-69
2023/09/11 13:19:51;;;;;;;3.57;3.40;;;;;;;;;;5034564;28;20427;-68
2023/09/11 13:22:17;;;;;;;18.13;4.90;;;;;;;;;;5034674;28;20423;-68
2023/09/11 13:24:43;;;;;;;3.33;3.13;;;;;;;;;;5034594;28;20453;-68
2023/09/11 13:27:09;;;;;;;6.70;3.77;;;;;;;;;;5034802;28;20419;-67
2023/09/11 13:29:35;;;;;;;21.27;4.03;;;;;;;;;;5034716;28;20415;-69
2023/09/11 13:32:01;;;;;;;4.23;3.10;;;;;;;;;;5034703;28;20924;-68
2023/09/11 13:34:27;;;;;;;3.90;3.33;;;;;;;;;;5034561;28;20497;-69
2023/09/11 13:36:57;;;;;;;10.13;3.00;;;;;;;;;;5034947;28;20461;-68
2023/09/11 13:39:23;;;;;;;6.20;4.40;;;;;;;;;;5032993;28;20416;-68
2023/09/11 13:41:49;;;;;;;9.53;3.43;;;;;;;;;;5034252;28;20801;-68
2023/09/11 13:44:15;;;;;;;12.10;3.93;;;;;;;;;;5034465;28;20462;-68
2023/09/11 13:46:41;;;;;;;3.67;3.20;;;;;;;;;;5032864;28;20804;-69
2023/09/11 13:49:07;;;;;;;2.87;2.67;;;;;;;;;;5034035;28;20424;-68
2023/09/11 13:51:33;;;;;;;3.50;2.80;;;;;;;;;;5034394;28;20434;-67
2023/09/11 13:53:59;;;;;;;8.10;4.23;;;;;;;;;;5033959;28;20467;-68
2023/09/11 13:56:25;;;;;;;5.03;4.10;;;;;;;;;;5033961;28;20495;-69
2023/09/11 13:58:51;;;;;;;4.63;3.20;;;;;;;;;;5034265;28;20513;-68
2023/09/11 14:01:17;;;;;;;4.47;3.83;;;;;;;;;;5033801;28;20453;-68
2023/09/11 14:03:43;;;;;;;11.57;3.83;;;;;;;;;;5034086;28;20418;-68
2023/09/11 14:06:09;;;;;;;6.30;3.27;;;;;;;;;;5033911;28;20497;-68
2023/09/11 14:08:35;;;;;;;15.30;3.80;;;;;;;;;;5033876;28;20400;-69
2023/09/11 14:11:01;;;;;;;5.27;4.80;;;;;;;;;;5033690;28;20415;-68
2023/09/11 14:13:27;;;;;;;3.97;3.60;;;;;;;;;;5033587;28;20993;-68
2023/09/11 14:15:53;;;;;;;5.17;3.60;;;;;;;;;;5032251;28;20566;-69
2023/09/11 14:18:22;;;;;;;5.50;3.60;;;;;;;;;;5034101;28;20884;-68
2023/09/11 14:20:48;;;;;;;33.00;3.90;;;;;;;;;;5033475;28;20433;-68
2023/09/11 14:23:14;;;;;;;3.77;3.47;;;;;;;;;;5033723;28;20424;-69
2023/09/11 14:25:40;;;;;;;4.50;4.10;;;;;;;;;;5033239;28;20912;-69
2023/09/11 14:28:06;;;;;;;3.20;3.00;;;;;;;;;;5033366;28;20486;-68
2023/09/11 14:30:34;;;;;;;4.53;4.13;;;;;;;;;;5031490;28;20463;-67
2023/09/11 14:33:00;;;;;;;49.37;4.70;;;;;;;;;;5033251;28;20423;-67
2023/09/11 14:35:26;;;;;;;4.70;3.83;;;;;;;;;;5033309;28;20593;-70
2023/09/11 14:37:52;;;;;;;8.80;4.10;;;;;;;;;;5033526;28;20431;-68
2023/09/11 14:40:18;;;;;;;6.63;3.50;;;;;;;;;;5033217;28;20570;-70